MAD weather

Adolfo Suárez Madrid–Barajas Airport
Madrid, Madrid, Spain

Public forecast

Using degrees Celsius for public forecast. Weather courtesy of forecast.io.

METAR (pilot weather report)

Retrieved 2018/06/19 08:30 UTC (0 seconds ago):

LEMD 190830Z 01001KT CAVOK 24/12 Q1022 NOSIG

TAF (pilot weather forecast)

Retrieved 2018/06/19 06:27 UTC (2 hours ago):

TAF LEMD 190500Z 1906/2012 01006KT CAVOK TX33/1915Z TN16/1906Z BECMG 1909/1911 VRB05KT TEMPO 1911/1918 16008G18KT